createdAt,value
2022-08-29T00:00:28.126Z,2.20
2022-08-29T00:03:00.162Z,2.45
2022-08-29T00:05:31.060Z,1.98
2022-08-29T00:08:00.900Z,2.38
2022-08-29T00:10:31.927Z,2.08
2022-08-29T00:13:00.648Z,2.30
2022-08-29T00:15:32.068Z,2.25
2022-08-29T00:18:09.950Z,2.72
2022-08-29T00:20:38.312Z,1.98
2022-08-29T00:23:07.815Z,2.65
2022-08-29T00:25:36.278Z,2.60
2022-08-29T00:28:07.089Z,2.95
2022-08-29T00:30:37.817Z,2.88
2022-08-29T00:33:06.038Z,2.55
2022-08-29T00:35:36.607Z,2.58
2022-08-29T00:38:06.751Z,2.53
2022-08-29T00:40:39.474Z,2.67
2022-08-29T00:43:09.871Z,2.38
2022-08-29T00:45:44.647Z,2.83
2022-08-29T00:48:16.119Z,2.75
2022-08-29T00:50:51.786Z,2.70
2022-08-29T00:53:25.512Z,2.58
2022-08-29T00:55:55.508Z,2.42
2022-08-29T00:58:29.631Z,2.75
2022-08-29T01:00:59.234Z,2.47
2022-08-29T01:03:28.693Z,2.95
2022-08-29T01:05:56.835Z,2.47
2022-08-29T01:08:25.871Z,2.50
2022-08-29T01:11:11.932Z,2.33
2022-08-29T01:13:43.988Z,2.65
2022-08-29T01:16:16.169Z,3.05
2022-08-29T01:18:47.472Z,3.10
2022-08-29T01:21:22.132Z,3.05
2022-08-29T01:23:58.958Z,3.00
2022-08-29T01:26:30.775Z,2.97
2022-08-29T01:28:59.392Z,2.70
2022-08-29T01:31:57.481Z,3.00
2022-08-29T01:34:27.357Z,2.90
2022-08-29T01:36:57.752Z,3.08
2022-08-29T01:39:28.361Z,3.25
2022-08-29T01:41:59.440Z,3.38
2022-08-29T01:44:28.275Z,3.17
2022-08-29T01:47:03.294Z,3.40
2022-08-29T01:49:32.667Z,2.72
2022-08-29T01:52:02.039Z,3.10
2022-08-29T01:54:31.223Z,2.80
2022-08-29T01:57:01.511Z,2.92
2022-08-29T01:59:32.664Z,2.95
2022-08-29T02:02:05.357Z,2.67
2022-08-29T02:04:34.268Z,3.08
2022-08-29T02:07:10.551Z,2.90
2022-08-29T02:09:43.192Z,3.08
2022-08-29T02:12:17.566Z,3.17
2022-08-29T02:14:46.152Z,2.83
2022-08-29T02:17:14.495Z,3.08
2022-08-29T02:19:43.555Z,3.17
2022-08-29T02:22:11.772Z,3.17
2022-08-29T02:24:40.598Z,2.58
2022-08-29T02:27:09.532Z,3.10
2022-08-29T02:29:41.038Z,3.22
2022-08-29T02:32:16.260Z,3.00
2022-08-29T02:34:47.676Z,2.70
2022-08-29T02:37:17.637Z,2.55
2022-08-29T02:39:46.093Z,2.70
2022-08-29T02:42:14.213Z,2.83
2022-08-29T02:44:43.689Z,2.85
2022-08-29T02:47:11.904Z,3.17
2022-08-29T02:49:40.032Z,3.15
2022-08-29T02:52:10.683Z,2.78
2022-08-29T02:54:38.974Z,3.13
2022-08-29T02:57:07.776Z,2.92
2022-08-29T02:59:38.656Z,3.33
2022-08-29T03:02:15.858Z,2.63
2022-08-29T03:04:46.568Z,2.88
2022-08-29T03:07:15.039Z,3.20
2022-08-29T03:09:43.283Z,2.78
2022-08-29T03:12:11.906Z,3.65
2022-08-29T03:14:40.240Z,3.28
2022-08-29T03:17:09.886Z,3.08
2022-08-29T03:19:39.670Z,2.90
2022-08-29T03:22:08.260Z,3.05
2022-08-29T03:24:37.410Z,3.45
2022-08-29T03:27:06.010Z,2.92
2022-08-29T03:29:34.440Z,3.03
2022-08-29T03:32:02.664Z,2.90
2022-08-29T03:34:32.965Z,3.15
2022-08-29T03:37:01.759Z,3.40
2022-08-29T03:39:30.544Z,2.92
2022-08-29T03:41:58.897Z,2.78
2022-08-29T03:44:27.402Z,3.42
2022-08-29T03:46:56.879Z,3.47
2022-08-29T03:49:25.274Z,2.75
2022-08-29T03:51:55.018Z,3.10
2022-08-29T03:54:27.152Z,3.10
2022-08-29T03:56:55.610Z,3.25
2022-08-29T03:59:24.471Z,3.70
2022-08-29T04:01:52.954Z,2.92
2022-08-29T04:04:39.192Z,3.17
2022-08-29T04:07:12.786Z,3.03
2022-08-29T04:09:41.980Z,3.20
2022-08-29T04:12:12.282Z,3.10
2022-08-29T04:14:40.707Z,3.90
2022-08-29T04:17:10.196Z,3.20
2022-08-29T04:19:38.291Z,3.80
2022-08-29T04:22:08.173Z,3.42
2022-08-29T04:24:37.727Z,3.00
2022-08-29T04:27:06.189Z,3.42
2022-08-29T04:29:38.195Z,3.47
2022-08-29T04:32:07.709Z,2.80
2022-08-29T04:34:37.685Z,3.42
2022-08-29T04:37:06.282Z,3.60
2022-08-29T04:39:36.868Z,3.30
2022-08-29T04:42:05.784Z,2.85
2022-08-29T04:44:35.220Z,3.30
2022-08-29T04:47:03.597Z,3.75
2022-08-29T04:49:33.677Z,3.20
2022-08-29T04:52:02.421Z,3.05
2022-08-29T04:54:33.715Z,3.25
2022-08-29T04:57:05.021Z,3.20
2022-08-29T04:59:34.112Z,3.70
2022-08-29T05:02:03.691Z,3.47
2022-08-29T05:04:35.596Z,2.97
2022-08-29T05:07:05.629Z,2.70
2022-08-29T05:09:33.922Z,3.03
2022-08-29T05:12:09.644Z,3.30
2022-08-29T05:14:38.311Z,3.00
2022-08-29T05:17:09.506Z,3.38
2022-08-29T05:19:45.276Z,3.75
2022-08-29T05:22:15.475Z,3.85
2022-08-29T05:24:44.001Z,3.70
2022-08-29T05:27:16.566Z,2.97
2022-08-29T05:29:46.948Z,3.28
2022-08-29T05:32:17.507Z,3.45
2022-08-29T05:34:46.844Z,3.35
2022-08-29T05:37:19.316Z,3.92
2022-08-29T05:39:48.354Z,3.50
2022-08-29T05:42:21.998Z,3.00
2022-08-29T05:44:52.046Z,3.15
2022-08-29T05:47:21.461Z,3.35
2022-08-29T05:49:50.381Z,3.35
2022-08-29T05:52:21.403Z,3.20
2022-08-29T05:54:50.238Z,3.35
2022-08-29T05:57:22.734Z,3.22
2022-08-29T05:59:53.671Z,3.13
2022-08-29T06:02:23.723Z,3.63
2022-08-29T06:05:03.584Z,3.78
2022-08-29T06:07:34.203Z,3.60
2022-08-29T06:10:06.810Z,3.75
2022-08-29T06:12:37.189Z,3.08
2022-08-29T06:15:08.133Z,3.35
2022-08-29T06:17:40.872Z,3.33
2022-08-29T06:20:11.003Z,3.33
2022-08-29T06:22:40.699Z,3.40
2022-08-29T06:25:35.002Z,3.20
2022-08-29T06:28:00.361Z,3.90
2022-08-29T06:30:34.131Z,3.42
2022-08-29T06:33:02.915Z,3.75
2022-08-29T06:35:31.317Z,3.28
2022-08-29T06:38:03.861Z,3.42
2022-08-29T06:40:34.516Z,4.05
2022-08-29T06:43:08.613Z,3.35
2022-08-29T06:45:42.495Z,3.20
2022-08-29T06:48:11.090Z,3.38
2022-08-29T06:50:47.120Z,3.47
2022-08-29T06:53:27.331Z,3.50
2022-08-29T06:55:57.063Z,3.65
2022-08-29T06:58:34.533Z,3.78
2022-08-29T07:01:09.533Z,3.80
2022-08-29T07:03:53.575Z,3.55
2022-08-29T07:06:22.008Z,3.17
2022-08-29T07:08:55.965Z,3.40
2022-08-29T07:11:25.797Z,3.80
2022-08-29T07:14:00.927Z,3.38
2022-08-29T07:16:31.224Z,3.97
2022-08-29T07:19:03.175Z,3.38
2022-08-29T07:21:32.272Z,3.50
2022-08-29T07:24:02.273Z,4.05
2022-08-29T07:26:36.265Z,3.70
2022-08-29T07:29:10.559Z,3.38
2022-08-29T07:31:43.824Z,3.33
2022-08-29T07:34:12.341Z,3.10
2022-08-29T07:36:41.673Z,3.55
2022-08-29T07:39:12.204Z,3.08
2022-08-29T07:41:41.869Z,3.22
2022-08-29T07:44:12.524Z,3.38
2022-08-29T07:46:41.680Z,3.17
2022-08-29T07:49:10.107Z,2.97
2022-08-29T07:51:42.375Z,2.90
2022-08-29T07:54:18.944Z,2.92
2022-08-29T07:56:54.207Z,2.85
2022-08-29T07:59:24.106Z,2.55
2022-08-29T08:01:55.053Z,2.92
2022-08-29T08:04:24.811Z,3.20
2022-08-29T08:06:55.512Z,3.40
2022-08-29T08:09:27.457Z,2.90
2022-08-29T08:12:02.972Z,3.17
2022-08-29T08:14:35.449Z,3.10
2022-08-29T08:17:06.505Z,3.17
2022-08-29T08:19:39.892Z,2.78
2022-08-29T08:22:11.783Z,2.72
2022-08-29T08:24:40.284Z,2.70
2022-08-29T08:27:11.341Z,2.75
2022-08-29T08:29:43.006Z,2.80
2022-08-29T08:32:14.547Z,2.63
2022-08-29T08:34:45.898Z,3.03
2022-08-29T08:37:24.309Z,2.72
2022-08-29T08:40:05.074Z,2.85
2022-08-29T08:42:44.558Z,2.67
2022-08-29T08:45:18.394Z,2.60
2022-08-29T08:47:52.338Z,2.60
2022-08-29T08:50:28.226Z,2.42
2022-08-29T08:53:04.401Z,3.08
2022-08-29T08:55:42.625Z,2.83
2022-08-29T08:58:35.700Z,2.38
2022-08-29T09:01:23.305Z,2.88
2022-08-29T09:04:16.178Z,2.40
2022-08-29T09:07:05.781Z,2.25
2022-08-29T09:09:48.507Z,2.80
2022-08-29T09:12:28.464Z,2.60
2022-08-29T09:15:13.581Z,2.53
2022-08-29T09:17:49.880Z,2.50
2022-08-29T09:20:23.358Z,2.95
2022-08-29T09:23:00.762Z,2.67
2022-08-29T09:25:36.452Z,2.70
2022-08-29T09:28:09.208Z,3.03
2022-08-29T09:30:40.172Z,4.47
2022-08-29T09:33:13.602Z,2.97
2022-08-29T09:36:01.555Z,2.78
2022-08-29T09:38:31.945Z,2.42
2022-08-29T09:41:12.655Z,2.72
2022-08-29T09:43:58.674Z,2.78
2022-08-29T09:46:29.187Z,2.55
2022-08-29T09:49:18.575Z,2.63
2022-08-29T09:51:51.091Z,2.75
2022-08-29T09:54:33.844Z,2.72
2022-08-29T09:57:11.228Z,2.50
2022-08-29T09:59:52.708Z,2.58
2022-08-29T10:02:25.336Z,2.92
2022-08-29T10:05:00.929Z,2.40
2022-08-29T10:07:37.479Z,2.08
2022-08-29T10:10:16.965Z,2.70
2022-08-29T10:12:51.639Z,2.63
2022-08-29T10:15:48.908Z,2.63
2022-08-29T10:18:31.940Z,2.63
2022-08-29T10:21:33.039Z,2.90
2022-08-29T10:24:18.923Z,2.20
2022-08-29T10:26:57.701Z,2.38
2022-08-29T10:29:42.654Z,2.60
2022-08-29T10:32:21.499Z,2.80
2022-08-29T10:35:07.903Z,2.05
2022-08-29T10:37:55.620Z,2.30
2022-08-29T10:40:32.765Z,2.33
2022-08-29T10:43:22.524Z,2.75
2022-08-29T10:46:12.865Z,2.10
2022-08-29T10:48:54.769Z,2.60
2022-08-29T10:51:30.630Z,2.78
2022-08-29T10:54:10.092Z,2.53
2022-08-29T10:56:43.894Z,2.50
2022-08-29T10:59:21.882Z,2.55
2022-08-29T11:01:57.491Z,2.10
2022-08-29T11:04:32.317Z,2.08
2022-08-29T11:07:07.650Z,2.13
2022-08-29T11:09:43.396Z,2.45
2022-08-29T11:12:23.106Z,2.17
2022-08-29T11:14:58.379Z,2.35
2022-08-29T11:17:41.310Z,2.10
2022-08-29T11:20:17.816Z,2.17
2022-08-29T11:22:53.379Z,1.85
2022-08-29T11:25:25.501Z,2.13
2022-08-29T11:28:04.818Z,1.90
2022-08-29T11:30:47.944Z,2.00
2022-08-29T11:33:29.725Z,1.80
2022-08-29T11:36:14.381Z,2.15
2022-08-29T11:39:15.718Z,2.40
2022-08-29T11:41:47.788Z,2.30
2022-08-29T11:44:27.520Z,2.20
2022-08-29T11:47:02.055Z,2.50
2022-08-29T11:49:48.538Z,2.03
2022-08-29T11:52:25.387Z,2.28
2022-08-29T11:55:25.414Z,2.67
2022-08-29T11:58:42.995Z,2.42
2022-08-29T12:01:56.030Z,2.42
2022-08-29T12:04:53.544Z,2.47
2022-08-29T12:07:34.780Z,2.53
2022-08-29T12:10:08.754Z,2.17
2022-08-29T12:12:46.802Z,2.35
2022-08-29T12:16:00.267Z,2.53
2022-08-29T12:18:38.423Z,2.50
2022-08-29T12:21:45.600Z,2.33
2022-08-29T12:24:31.872Z,2.40
2022-08-29T12:27:02.203Z,2.35
2022-08-29T12:29:43.728Z,2.60
2022-08-29T12:32:40.046Z,2.53
2022-08-29T12:35:41.245Z,2.55
2022-08-29T12:38:27.325Z,2.83
2022-08-29T12:41:08.306Z,2.42
2022-08-29T12:43:42.696Z,2.50
2022-08-29T12:46:24.431Z,2.55
2022-08-29T12:49:02.851Z,2.70
2022-08-29T12:51:43.242Z,2.08
2022-08-29T12:54:15.138Z,2.33
2022-08-29T12:56:52.084Z,2.38
2022-08-29T12:59:21.701Z,2.30
2022-08-29T13:01:56.022Z,2.40
2022-08-29T13:04:32.049Z,2.40
2022-08-29T13:07:09.828Z,2.28
2022-08-29T13:09:43.736Z,2.28
2022-08-29T13:12:21.976Z,1.85
2022-08-29T13:14:58.068Z,3.08
2022-08-29T13:17:31.177Z,2.00
2022-08-29T13:20:41.075Z,2.20
2022-08-29T13:23:23.057Z,2.30
2022-08-29T13:26:00.251Z,2.28
2022-08-29T13:28:40.815Z,1.85
2022-08-29T13:31:32.329Z,2.17
2022-08-29T13:34:11.691Z,1.70
2022-08-29T13:36:44.520Z,2.25
2022-08-29T13:39:30.485Z,2.10
2022-08-29T13:42:12.894Z,2.20
2022-08-29T13:45:16.742Z,2.17
2022-08-29T13:48:14.564Z,2.13
2022-08-29T13:50:44.106Z,2.00
2022-08-29T13:53:12.544Z,2.13
2022-08-29T13:55:56.480Z,2.03
2022-08-29T13:58:26.808Z,2.45
2022-08-29T14:00:59.233Z,2.28
2022-08-29T14:03:31.054Z,1.90
2022-08-29T14:06:01.354Z,1.95
2022-08-29T14:08:30.325Z,1.92
2022-08-29T14:11:00.003Z,1.73
2022-08-29T14:13:29.040Z,1.75
2022-08-29T14:15:58.551Z,2.13
2022-08-29T14:18:26.896Z,2.03
2022-08-29T14:21:02.022Z,1.95
2022-08-29T14:23:31.349Z,2.00
2022-08-29T14:26:01.417Z,1.83
2022-08-29T14:28:30.055Z,2.13
2022-08-29T14:30:58.331Z,2.10
2022-08-29T14:33:26.769Z,1.77
2022-08-29T14:35:57.171Z,1.73
2022-08-29T14:38:27.306Z,1.60
2022-08-29T14:40:56.697Z,1.60
2022-08-29T14:43:26.951Z,1.52
2022-08-29T14:45:56.543Z,1.67
2022-08-29T14:48:25.705Z,1.90
2022-08-29T14:50:54.137Z,2.00
2022-08-29T14:53:22.936Z,1.65
2022-08-29T14:55:52.551Z,1.80
2022-08-29T14:58:20.927Z,1.40
2022-08-29T15:00:51.637Z,1.67
2022-08-29T15:03:24.896Z,2.10
2022-08-29T15:05:53.957Z,1.90
2022-08-29T15:08:25.101Z,1.85
2022-08-29T15:10:53.662Z,1.60
2022-08-29T15:13:27.494Z,1.95
2022-08-29T15:16:06.817Z,1.95
2022-08-29T15:19:28.281Z,1.95
2022-08-29T15:21:32.094Z,2.03
2022-08-29T15:24:00.927Z,1.50
2022-08-29T15:26:30.330Z,1.58
2022-08-29T15:28:59.563Z,1.77
2022-08-29T15:31:31.280Z,2.10
2022-08-29T15:34:01.664Z,1.73
2022-08-29T15:36:35.113Z,2.00
2022-08-29T15:39:05.919Z,2.15
2022-08-29T15:41:39.571Z,1.83
2022-08-29T15:44:08.282Z,1.70
2022-08-29T15:46:50.818Z,2.08
2022-08-29T15:49:24.320Z,1.90
2022-08-29T15:51:53.323Z,1.70
2022-08-29T15:54:22.302Z,2.05
2022-08-29T15:56:51.197Z,1.83
2022-08-29T15:59:35.801Z,2.00
2022-08-29T16:02:11.434Z,2.03
2022-08-29T16:04:42.885Z,1.90
2022-08-29T16:07:12.680Z,1.90
2022-08-29T16:09:43.096Z,1.80
2022-08-29T16:12:13.647Z,1.52
2022-08-29T16:14:59.123Z,1.95
2022-08-29T16:17:31.732Z,2.10
2022-08-29T16:20:02.320Z,1.50
2022-08-29T16:22:31.326Z,1.70
2022-08-29T16:25:01.214Z,1.90
2022-08-29T16:27:31.845Z,1.85
2022-08-29T16:30:01.322Z,1.88
2022-08-29T16:32:31.409Z,1.90
2022-08-29T16:35:00.385Z,2.10
2022-08-29T16:37:34.416Z,2.35
2022-08-29T16:40:05.409Z,2.00
2022-08-29T16:42:34.343Z,2.13
2022-08-29T16:45:06.191Z,1.92
2022-08-29T16:47:36.287Z,2.20
2022-08-29T16:50:10.261Z,2.00
2022-08-29T16:52:39.943Z,1.98
2022-08-29T16:55:09.827Z,2.20
2022-08-29T16:57:38.851Z,2.03
2022-08-29T17:00:12.769Z,2.10
2022-08-29T17:02:42.699Z,2.28
2022-08-29T17:05:11.274Z,1.95
2022-08-29T17:07:38.502Z,2.05
2022-08-29T17:10:06.209Z,2.28
2022-08-29T17:12:35.212Z,1.90
2022-08-29T17:15:02.560Z,2.30
2022-08-29T17:17:32.080Z,2.25
2022-08-29T17:20:07.415Z,2.30
2022-08-29T17:22:35.775Z,1.85
2022-08-29T17:25:05.953Z,2.30
2022-08-29T17:27:34.423Z,2.30
2022-08-29T17:30:04.610Z,2.22
2022-08-29T17:32:35.412Z,1.92
2022-08-29T17:35:08.658Z,2.00
2022-08-29T17:37:38.203Z,2.35
2022-08-29T17:40:08.634Z,2.10
2022-08-29T17:42:38.681Z,2.42
2022-08-29T17:45:08.307Z,2.28
2022-08-29T17:47:37.545Z,2.60
2022-08-29T17:50:08.683Z,2.15
2022-08-29T17:52:37.861Z,2.40
2022-08-29T17:55:08.442Z,1.88
2022-08-29T17:57:36.510Z,2.40
2022-08-29T18:00:08.375Z,2.33
2022-08-29T18:02:41.367Z,2.10
2022-08-29T18:05:13.715Z,2.55
2022-08-29T18:07:45.887Z,2.55
2022-08-29T18:10:16.585Z,2.80
2022-08-29T18:12:45.247Z,2.47
2022-08-29T18:15:16.643Z,2.30
2022-08-29T18:17:46.093Z,2.63
2022-08-29T18:20:21.698Z,2.35
2022-08-29T18:22:50.757Z,2.42
2022-08-29T18:25:22.491Z,2.53
2022-08-29T18:27:53.003Z,2.60
2022-08-29T18:30:21.774Z,2.55
2022-08-29T18:32:50.332Z,2.30
2022-08-29T18:35:20.791Z,2.50
2022-08-29T18:37:49.283Z,2.30
2022-08-29T18:40:19.320Z,2.00
2022-08-29T18:42:48.339Z,2.58
2022-08-29T18:45:16.534Z,2.20
2022-08-29T18:47:46.175Z,2.30
2022-08-29T18:50:33.122Z,2.60
2022-08-29T18:53:06.088Z,2.20
2022-08-29T18:55:34.632Z,2.97
2022-08-29T18:58:03.927Z,2.40
2022-08-29T19:00:32.538Z,2.72
2022-08-29T19:03:04.261Z,2.50
2022-08-29T19:05:36.926Z,2.55
2022-08-29T19:08:11.638Z,2.88
2022-08-29T19:10:40.408Z,2.50
2022-08-29T19:13:09.094Z,2.13
2022-08-29T19:15:41.319Z,2.90
2022-08-29T19:18:11.520Z,2.63
2022-08-29T19:20:58.751Z,2.80
2022-08-29T19:23:39.757Z,2.70
2022-08-29T19:26:11.559Z,3.00
2022-08-29T19:31:08.668Z,2.83
2022-08-29T19:33:37.936Z,2.63
2022-08-29T19:36:11.354Z,2.83
2022-08-29T19:38:44.068Z,2.97
2022-08-29T19:41:21.855Z,2.55
2022-08-29T19:43:53.153Z,2.45
2022-08-29T19:46:24.079Z,3.30
2022-08-29T19:48:53.111Z,2.80
2022-08-29T19:51:28.202Z,2.58
2022-08-29T19:53:59.184Z,2.90
2022-08-29T19:56:29.176Z,2.83
2022-08-29T19:59:01.283Z,2.92
2022-08-29T20:01:31.635Z,3.33
2022-08-29T20:04:01.205Z,2.67
2022-08-29T20:06:29.485Z,3.22
2022-08-29T20:08:59.150Z,3.00
2022-08-29T20:11:28.013Z,2.95
2022-08-29T20:13:59.842Z,3.10
2022-08-29T20:16:30.778Z,3.05
2022-08-29T20:19:02.675Z,2.95
2022-08-29T20:21:33.838Z,3.33
2022-08-29T20:24:03.989Z,3.13
2022-08-29T20:26:35.713Z,3.15
2022-08-29T20:29:08.668Z,3.13
2022-08-29T20:31:39.246Z,3.00
2022-08-29T20:34:08.720Z,2.92
2022-08-29T20:36:55.761Z,2.95
2022-08-29T20:39:26.796Z,2.63
2022-08-29T20:41:59.365Z,2.88
2022-08-29T20:44:34.047Z,3.28
2022-08-29T20:47:04.930Z,3.53
2022-08-29T20:49:34.015Z,3.00
2022-08-29T20:52:03.629Z,3.10
2022-08-29T20:54:35.990Z,2.83
2022-08-29T20:57:05.209Z,2.75
2022-08-29T20:59:34.760Z,3.00
2022-08-29T21:02:04.818Z,3.03
2022-08-29T21:04:51.189Z,3.17
2022-08-29T21:07:20.531Z,3.28
2022-08-29T21:09:52.099Z,3.20
2022-08-29T21:12:22.374Z,3.22
2022-08-29T21:14:56.380Z,3.33
2022-08-29T21:17:25.046Z,3.20
2022-08-29T21:19:54.897Z,3.70
2022-08-29T21:22:25.251Z,3.17
2022-08-29T21:24:57.062Z,3.30
2022-08-29T21:27:26.189Z,3.00
2022-08-29T21:29:56.534Z,3.20
2022-08-29T21:32:24.938Z,2.85
2022-08-29T21:34:59.093Z,3.65
2022-08-29T21:37:27.446Z,3.45
2022-08-29T21:39:58.899Z,3.08
2022-08-29T21:42:28.149Z,3.10
2022-08-29T21:45:02.647Z,2.95
2022-08-29T21:47:31.918Z,3.03
2022-08-29T21:50:00.217Z,2.92
2022-08-29T21:52:28.890Z,2.90
2022-08-29T21:55:01.923Z,3.08
2022-08-29T21:57:48.165Z,3.13
2022-08-29T22:00:18.186Z,3.13
2022-08-29T22:02:46.697Z,3.10
2022-08-29T22:05:15.708Z,3.20
2022-08-29T22:07:45.153Z,3.40
2022-08-29T22:10:18.598Z,3.50
2022-08-29T22:12:47.573Z,3.03
2022-08-29T22:15:33.426Z,3.85
2022-08-29T22:18:03.923Z,3.13
2022-08-29T22:20:33.741Z,3.35
2022-08-29T22:23:05.333Z,3.22
2022-08-29T22:25:36.828Z,3.00
2022-08-29T22:28:06.188Z,3.05
2022-08-29T22:30:35.696Z,2.85
2022-08-29T22:33:05.619Z,3.03
2022-08-29T22:35:36.919Z,3.17
2022-08-29T22:38:06.174Z,3.25
2022-08-29T22:40:40.783Z,3.22
2022-08-29T22:43:09.225Z,3.22
2022-08-29T22:45:38.198Z,3.28
2022-08-29T22:48:07.241Z,2.83
2022-08-29T22:50:37.146Z,2.95
2022-08-29T22:53:05.996Z,3.10
2022-08-29T22:55:37.406Z,3.55
2022-08-29T22:58:07.242Z,3.20
2022-08-29T23:00:37.402Z,3.30
2022-08-29T23:03:06.466Z,3.90
2022-08-29T23:05:34.948Z,3.03
2022-08-29T23:08:03.553Z,3.63
2022-08-29T23:10:38.814Z,3.58
2022-08-29T23:13:11.375Z,3.78
2022-08-29T23:15:40.196Z,3.42
2022-08-29T23:18:08.412Z,3.30
2022-08-29T23:20:37.110Z,3.70
2022-08-29T23:23:08.580Z,3.28
2022-08-29T23:25:38.394Z,3.45
2022-08-29T23:28:08.058Z,3.50
2022-08-29T23:30:36.450Z,3.30
2022-08-29T23:33:07.010Z,3.38
2022-08-29T23:35:42.043Z,4.00
2022-08-29T23:38:10.443Z,3.03
2022-08-29T23:40:40.463Z,4.22
2022-08-29T23:43:09.946Z,3.78
2022-08-29T23:45:39.977Z,3.55
2022-08-29T23:48:08.412Z,3.60
2022-08-29T23:50:37.271Z,3.95
2022-08-29T23:53:05.578Z,3.95
2022-08-29T23:55:33.976Z,3.90
2022-08-29T23:58:09.742Z,3.90
